Time;durP1;ratioP1;P1;durP2;ratioP2;P2;SDS_P1;SDS_P2;PMS_P1;PMS_P2;Temp;Humidity;BMP_temperature;BMP_pressure;BME280_temperature;BME280_humidity;BME280_pressure;Samples;Min_cycle;Max_cycle;Signal;HPM_P1;HPM_P2
2022/11/20 00:01:26;;;;;;;7.60;7.00;;;6.30;99.90;;;;;;5040542;28;20649;-86
2022/11/20 00:03:55;;;;;;;7.33;6.63;;;6.60;99.90;;;;;;5032183;28;20619;-85
2022/11/20 00:06:24;;;;;;;7.17;6.37;;;6.60;99.90;;;;;;5028143;28;20618;-86
2022/11/20 00:08:51;;;;;;;6.63;6.07;;;6.70;99.90;;;;;;5027837;28;20635;-86
2022/11/20 00:11:20;;;;;;;6.10;5.60;;;6.60;99.90;;;;;;5036907;28;20659;-86
2022/11/20 00:13:48;;;;;;;7.30;6.70;;;6.00;99.90;;;;;;5040544;28;20645;-85
2022/11/20 00:16:17;;;;;;;6.90;6.30;;;6.60;99.90;;;;;;5045506;28;20667;-86
2022/11/20 00:18:44;;;;;;;7.60;6.90;;;6.50;99.90;;;;;;5042985;28;20633;-85
2022/11/20 00:21:12;;;;;;;6.70;6.10;;;6.60;99.90;;;;;;5047808;28;20666;-86
2022/11/20 00:23:41;;;;;;;6.40;6.00;;;6.60;99.90;;;;;;5034885;28;20651;-85
2022/11/20 00:26:10;;;;;;;6.97;6.30;;;6.40;99.90;;;;;;5033036;28;20626;-86
2022/11/20 00:28:36;;;;;;;7.63;7.07;;;6.40;99.90;;;;;;5034650;28;20626;-86
2022/11/20 00:31:04;;;;;;;6.97;6.47;;;6.30;99.90;;;;;;5042902;28;20737;-86
2022/11/20 00:33:32;;;;;;;6.07;5.67;;;6.10;99.90;;;;;;5036724;28;20967;-85
2022/11/20 00:36:03;;;;;;;6.93;6.33;;;6.30;99.90;;;;;;5029845;28;20686;-85
2022/11/20 00:38:30;;;;;;;7.07;6.47;;;6.50;99.90;;;;;;5028885;28;20635;-85
2022/11/20 00:40:59;;;;;;;6.90;6.40;;;6.30;99.90;;;;;;5046165;28;20652;-86
2022/11/20 00:43:27;;;;;;;5.57;5.07;;;6.20;99.90;;;;;;5049011;28;20640;-85
2022/11/20 00:45:58;;;;;;;5.23;4.83;;;6.40;99.90;;;;;;5032114;28;20630;-85
2022/11/20 00:48:25;;;;;;;4.67;4.37;;;6.40;99.90;;;;;;5042162;28;20641;-85
2022/11/20 00:50:53;;;;;;;5.77;5.37;;;6.20;99.90;;;;;;5034333;28;20650;-86
2022/11/20 00:53:20;;;;;;;5.80;4.50;;;6.10;99.90;;;;;;5047148;28;20622;-86
2022/11/20 00:55:54;;;;;;;7.47;5.87;;;6.00;99.90;;;;;;5045961;28;20666;-85
2022/11/20 00:58:22;;;;;;;5.33;4.93;;;6.70;99.90;;;;;;5047496;28;20659;-85
2022/11/20 01:00:50;;;;;;;5.10;4.70;;;6.60;99.90;;;;;;5047811;28;21332;-86
2022/11/20 01:03:17;;;;;;;5.63;5.03;;;6.70;99.90;;;;;;5046783;28;21178;-86
2022/11/20 01:05:44;;;;;;;4.73;4.40;;;6.70;99.90;;;;;;5049467;28;20683;-87
2022/11/20 01:08:11;;;;;;;4.70;4.30;;;6.30;99.90;;;;;;5049086;28;20626;-87
2022/11/20 01:10:38;;;;;;;4.90;4.50;;;6.60;99.90;;;;;;5034967;28;20741;-84
2022/11/20 01:15:50;;;;;;;4.20;3.90;;;6.70;99.90;;;;;;5034497;28;20677;-86
2022/11/20 01:18:16;;;;;;;4.90;4.50;;;6.60;99.90;;;;;;5048666;28;20640;-87
2022/11/20 01:20:43;;;;;;;4.50;4.10;;;6.60;99.90;;;;;;5031995;28;20650;-86
2022/11/20 01:23:10;;;;;;;4.90;4.50;;;6.50;99.90;;;;;;5039883;28;20625;-86
2022/11/20 01:25:37;;;;;;;4.40;4.10;;;6.50;99.90;;;;;;5038561;28;20623;-87
2022/11/20 01:28:04;;;;;;;5.07;4.73;;;6.40;99.90;;;;;;5042840;28;20636;-87
2022/11/20 01:30:30;;;;;;;5.03;4.60;;;6.30;99.90;;;;;;5046007;28;20684;-86
2022/11/20 01:32:58;;;;;;;7.00;4.13;;;6.20;99.90;;;;;;5046520;28;21043;-86
2022/11/20 01:35:25;;;;;;;5.53;3.77;;;5.80;99.90;;;;;;5047802;28;20637;-86
2022/11/20 01:37:52;;;;;;;4.00;3.60;;;6.30;99.90;;;;;;5047784;28;20632;-86
2022/11/20 01:40:19;;;;;;;4.90;4.60;;;6.30;99.90;;;;;;5033844;28;20696;-86
2022/11/20 01:46:01;;;;;;;4.40;4.00;;;6.10;99.90;;;;;;5044293;28;20643;-85
2022/11/20 01:48:34;;;;;;;4.07;3.77;;;6.30;99.90;;;;;;5045047;28;20634;-86
2022/11/20 01:51:03;;;;;;;4.33;3.90;;;6.30;99.90;;;;;;5035141;28;20742;-86
2022/11/20 01:53:35;;;;;;;3.53;3.23;;;6.20;99.90;;;;;;5034617;28;20622;-86
2022/11/20 01:56:06;;;;;;;3.70;3.40;;;6.30;99.90;;;;;;5043787;28;20652;-86
2022/11/20 01:58:35;;;;;;;3.63;3.17;;;6.20;99.90;;;;;;5036000;28;20628;-86
2022/11/20 02:01:02;;;;;;;4.07;3.77;;;6.10;99.90;;;;;;5038122;28;20654;-86
2022/11/20 02:03:30;;;;;;;4.40;4.00;;;6.00;99.90;;;;;;5046407;28;20648;-86
2022/11/20 02:06:02;;;;;;;4.13;3.73;;;6.40;99.90;;;;;;5046703;28;20622;-86
2022/11/20 02:08:29;;;;;;;3.83;3.63;;;6.50;99.90;;;;;;5038081;28;20614;-87
2022/11/20 02:10:56;;;;;;;3.93;3.57;;;6.40;99.90;;;;;;5039996;28;20650;-86
2022/11/20 02:16:11;;;;;;;3.17;2.87;;;6.40;99.90;;;;;;5035065;28;20669;-87
2022/11/20 02:18:40;;;;;;;3.60;3.30;;;6.30;99.90;;;;;;5037394;28;20621;-86
2022/11/20 02:21:12;;;;;;;4.07;3.03;;;6.30;99.90;;;;;;5046584;28;20645;-86
2022/11/20 02:23:44;;;;;;;2.70;2.50;;;6.40;99.90;;;;;;5047180;28;20635;-86
2022/11/20 02:26:16;;;;;;;3.23;3.03;;;6.20;99.90;;;;;;5045897;28;20625;-86
2022/11/20 02:28:43;;;;;;;3.33;3.03;;;6.30;99.90;;;;;;5032228;28;20649;-86
2022/11/20 02:31:10;;;;;;;3.23;3.03;;;6.40;99.90;;;;;;5034559;28;21001;-86
2022/11/20 02:33:37;;;;;;;4.27;3.87;;;6.50;99.90;;;;;;5032052;28;22263;-87
2022/11/20 02:36:04;;;;;;;3.57;3.27;;;6.40;99.90;;;;;;5044415;28;21236;-86
2022/11/20 02:38:31;;;;;;;2.73;2.53;;;6.20;99.90;;;;;;5041844;28;20638;-86
2022/11/20 02:40:57;;;;;;;3.67;3.30;;;6.50;99.90;;;;;;5038963;28;20950;-86
2022/11/20 02:43:26;;;;;;;3.30;3.00;;;6.40;99.90;;;;;;5045345;28;20622;-86
2022/11/20 02:45:52;;;;;;;4.00;3.70;;;6.20;99.90;;;;;;5041156;28;21180;-86
2022/11/20 02:48:19;;;;;;;3.67;3.37;;;5.80;99.90;;;;;;5049765;28;20633;-86
2022/11/20 02:50:46;;;;;;;4.50;3.90;;;6.30;99.90;;;;;;5038063;28;20654;-86
2022/11/20 02:53:13;;;;;;;3.80;3.50;;;6.30;99.90;;;;;;5036622;28;20737;-86
2022/11/20 02:55:40;;;;;;;3.57;3.20;;;6.20;99.90;;;;;;5049667;28;20629;-86
2022/11/20 02:58:07;;;;;;;3.60;3.30;;;5.50;99.90;;;;;;5041647;28;20621;-86
2022/11/20 03:00:35;;;;;;;3.63;3.23;;;6.00;99.90;;;;;;5049279;28;20707;-86
2022/11/20 03:03:02;;;;;;;3.83;3.53;;;6.10;99.90;;;;;;5048741;28;20629;-86
2022/11/20 03:05:29;;;;;;;4.50;4.10;;;5.70;99.90;;;;;;5050245;28;20634;-86
2022/11/20 03:07:56;;;;;;;4.10;3.80;;;5.60;99.90;;;;;;5034748;28;20623;-86
2022/11/20 03:10:23;;;;;;;4.20;3.90;;;5.70;99.90;;;;;;5035781;28;21274;-85
2022/11/20 03:12:55;;;;;;;4.50;4.10;;;6.10;99.90;;;;;;5035048;28;20613;-86
2022/11/20 03:15:21;;;;;;;4.40;4.00;;;6.00;99.90;;;;;;5032240;28;21051;-86
2022/11/20 03:17:50;;;;;;;4.97;4.57;;;6.10;99.90;;;;;;5049108;28;20665;-86
2022/11/20 03:20:16;;;;;;;3.67;3.40;;;6.10;99.90;;;;;;5041893;28;20661;-86
2022/11/20 03:22:43;;;;;;;4.40;4.00;;;6.10;99.90;;;;;;5050091;28;21155;-86
2022/11/20 03:25:10;;;;;;;4.93;4.27;;;5.60;99.90;;;;;;5049482;28;20640;-86
2022/11/20 03:27:37;;;;;;;4.00;3.70;;;6.30;99.90;;;;;;5044240;28;20968;-85
2022/11/20 03:30:05;;;;;;;5.10;3.80;;;6.00;99.90;;;;;;5046256;28;20660;-86
2022/11/20 03:32:32;;;;;;;4.13;3.83;;;6.10;99.90;;;;;;5031241;28;21193;-86
2022/11/20 03:35:00;;;;;;;4.70;4.23;;;6.00;99.90;;;;;;5039193;28;20624;-85
2022/11/20 03:37:27;;;;;;;4.80;4.50;;;5.80;99.90;;;;;;5040692;28;20683;-85
2022/11/20 03:39:53;;;;;;;5.83;5.23;;;6.00;99.90;;;;;;5047417;28;20657;-85
2022/11/20 03:45:05;;;;;;;4.60;4.20;;;6.10;99.90;;;;;;5042221;28;20581;-84
2022/11/20 03:47:32;;;;;;;4.80;4.00;;;6.30;99.90;;;;;;5048680;28;20638;-85
2022/11/20 03:50:01;;;;;;;5.43;3.73;;;6.20;99.90;;;;;;5036694;28;20669;-86
2022/11/20 03:52:27;;;;;;;4.77;4.37;;;6.20;99.90;;;;;;5031814;28;20623;-85
2022/11/20 03:54:54;;;;;;;3.70;3.37;;;6.10;99.90;;;;;;5030915;28;20633;-85
2022/11/20 03:57:21;;;;;;;4.40;4.10;;;6.10;99.90;;;;;;5039028;28;20670;-86
2022/11/20 03:59:47;;;;;;;3.30;3.10;;;5.90;99.90;;;;;;5029958;28;20658;-85
2022/11/20 04:02:14;;;;;;;4.30;3.90;;;6.10;99.90;;;;;;5042830;28;20990;-86
2022/11/20 04:04:41;;;;;;;4.43;4.03;;;5.80;99.90;;;;;;5036644;28;20724;-85
2022/11/20 04:07:10;;;;;;;5.77;3.60;;;5.80;99.90;;;;;;5049179;28;20629;-86
2022/11/20 04:09:38;;;;;;;4.73;4.20;;;5.40;99.90;;;;;;5043662;28;20657;-86
2022/11/20 04:12:05;;;;;;;4.07;3.77;;;5.60;99.90;;;;;;5039049;28;20613;-86
2022/11/20 04:14:32;;;;;;;3.87;3.57;;;5.70;99.90;;;;;;5043485;28;21015;-86
2022/11/20 04:16:59;;;;;;;4.37;4.07;;;5.90;99.90;;;;;;5037736;28;20665;-86
2022/11/20 04:19:29;;;;;;;4.60;4.20;;;5.70;99.90;;;;;;5045450;28;20634;-85
2022/11/20 04:21:56;;;;;;;5.40;4.47;;;5.90;99.90;;;;;;5037600;28;21332;-86
2022/11/20 04:24:24;;;;;;;4.17;3.70;;;6.00;99.90;;;;;;5030214;28;20629;-85
2022/11/20 04:26:51;;;;;;;5.00;4.40;;;6.00;99.90;;;;;;5039712;28;21145;-86
2022/11/20 04:29:17;;;;;;;4.77;4.13;;;5.60;99.90;;;;;;5040408;28;21000;-86
2022/11/20 04:31:44;;;;;;;3.97;3.67;;;6.00;99.90;;;;;;5046558;28;20636;-85
2022/11/20 04:34:12;;;;;;;4.70;3.90;;;5.80;99.90;;;;;;5041218;28;21154;-86
2022/11/20 04:36:39;;;;;;;4.70;3.73;;;5.90;99.90;;;;;;5036985;28;21232;-85
2022/11/20 04:39:07;;;;;;;4.13;3.73;;;6.00;99.90;;;;;;5040929;28;20638;-85
2022/11/20 04:41:36;;;;;;;3.60;3.30;;;6.10;99.90;;;;;;5036737;28;20770;-85
2022/11/20 04:44:06;;;;;;;5.53;3.83;;;5.90;99.90;;;;;;5033432;28;20659;-85
2022/11/20 04:46:35;;;;;;;4.13;3.20;;;5.80;99.90;;;;;;5043842;28;20622;-85
2022/11/20 04:49:02;;;;;;;3.80;3.27;;;5.50;99.90;;;;;;5039675;28;20630;-84
2022/11/20 04:51:29;;;;;;;3.60;3.30;;;5.90;99.90;;;;;;5044579;28;21271;-84
2022/11/20 04:53:56;;;;;;;3.77;3.57;;;5.90;99.90;;;;;;5034737;28;20642;-86
2022/11/20 04:56:23;;;;;;;3.30;3.10;;;6.00;99.90;;;;;;5048549;28;20633;-85
2022/11/20 04:58:52;;;;;;;4.07;3.77;;;5.90;99.90;;;;;;5039797;28;20637;-85
2022/11/20 05:01:20;;;;;;;3.63;3.33;;;5.80;99.90;;;;;;5044643;28;20664;-86
2022/11/20 05:03:47;;;;;;;4.20;3.77;;;6.10;99.90;;;;;;5034471;28;20982;-85
2022/11/20 05:06:16;;;;;;;4.13;3.63;;;6.00;99.90;;;;;;5045140;28;20665;-86
2022/11/20 05:08:43;;;;;;;3.63;3.40;;;5.50;99.90;;;;;;5043637;28;20622;-86
2022/11/20 05:11:16;;;;;;;4.07;3.27;;;5.90;99.90;;;;;;5043587;28;21235;-86
2022/11/20 05:13:43;;;;;;;3.77;3.47;;;6.00;99.90;;;;;;5044772;28;20626;-86
2022/11/20 05:16:14;;;;;;;4.10;3.80;;;5.70;99.90;;;;;;5038646;28;20635;-86
2022/11/20 05:18:41;;;;;;;3.23;3.03;;;5.80;99.90;;;;;;5046833;28;20652;-86
2022/11/20 05:21:09;;;;;;;3.07;2.87;;;5.70;99.90;;;;;;5040853;28;20647;-86
2022/11/20 05:23:37;;;;;;;5.17;3.33;;;5.90;99.90;;;;;;5047910;28;20626;-85
2022/11/20 05:26:04;;;;;;;3.80;3.50;;;6.00;99.90;;;;;;5034991;28;20656;-86
2022/11/20 05:28:32;;;;;;;4.00;3.30;;;5.90;99.90;;;;;;5039702;28;20631;-86
2022/11/20 05:31:05;;;;;;;4.10;3.70;;;6.00;99.90;;;;;;5046798;28;20980;-86
2022/11/20 05:33:34;;;;;;;2.90;2.70;;;6.10;99.90;;;;;;5032310;28;20628;-86
2022/11/20 05:36:01;;;;;;;3.43;3.13;;;6.10;99.90;;;;;;5039403;28;20623;-85
2022/11/20 05:38:28;;;;;;;3.70;3.40;;;6.10;99.90;;;;;;5043021;28;20662;-85
2022/11/20 05:40:55;;;;;;;6.90;3.50;;;6.00;99.90;;;;;;5038086;28;21368;-85
2022/11/20 05:43:21;;;;;;;3.80;3.47;;;5.60;99.90;;;;;;5028527;28;21552;-85
2022/11/20 05:45:53;;;;;;;4.70;3.80;;;6.20;99.90;;;;;;5043727;28;20638;-86
2022/11/20 05:48:20;;;;;;;4.00;3.10;;;5.60;99.90;;;;;;5047176;28;20615;-86
2022/11/20 05:50:49;;;;;;;3.70;3.40;;;5.90;99.90;;;;;;5051347;28;20769;-85
2022/11/20 05:53:15;;;;;;;3.80;3.50;;;6.00;99.90;;;;;;5036664;28;20638;-86
2022/11/20 05:55:42;;;;;;;3.80;3.50;;;5.90;99.90;;;;;;5031988;28;20652;-85
2022/11/20 05:58:09;;;;;;;3.73;3.40;;;6.20;99.90;;;;;;5037236;28;20670;-85
2022/11/20 06:00:36;;;;;;;3.03;2.80;;;6.00;99.90;;;;;;5038703;28;20661;-86
2022/11/20 06:03:03;;;;;;;3.47;3.17;;;6.10;99.90;;;;;;5046372;28;20630;-86
2022/11/20 06:05:29;;;;;;;6.60;3.00;;;6.00;99.90;;;;;;5048699;28;21157;-85
2022/11/20 06:07:58;;;;;;;5.40;3.07;;;6.20;99.90;;;;;;5047666;28;20626;-86
2022/11/20 06:10:24;;;;;;;3.13;2.90;;;6.20;99.90;;;;;;5044672;28;20650;-83
2022/11/20 06:12:51;;;;;;;3.47;3.10;;;6.30;99.90;;;;;;5046533;28;20633;-87
2022/11/20 06:15:18;;;;;;;2.87;2.77;;;6.10;99.90;;;;;;5039498;28;20662;-84
2022/11/20 06:17:45;;;;;;;2.77;2.50;;;6.30;99.90;;;;;;5051249;28;20669;-86
2022/11/20 06:20:12;;;;;;;2.90;2.70;;;6.30;99.90;;;;;;5050159;28;21010;-86
2022/11/20 06:22:38;;;;;;;2.57;2.40;;;6.30;99.90;;;;;;5051542;28;20644;-86
2022/11/20 06:25:07;;;;;;;3.10;2.90;;;6.00;99.90;;;;;;5035876;28;20661;-84
2022/11/20 06:27:34;;;;;;;2.60;2.40;;;6.60;99.90;;;;;;5033485;28;20622;-86
2022/11/20 06:30:00;;;;;;;2.83;2.23;;;6.00;99.90;;;;;;5048417;28;21249;-85
2022/11/20 06:32:27;;;;;;;3.73;3.43;;;6.20;99.90;;;;;;5051355;28;20651;-85
2022/11/20 06:34:54;;;;;;;2.83;2.63;;;6.50;99.90;;;;;;5036745;28;20623;-85
2022/11/20 06:37:21;;;;;;;3.17;2.43;;;6.50;99.90;;;;;;5034225;28;20665;-86
2022/11/20 06:39:48;;;;;;;3.20;2.90;;;6.20;99.90;;;;;;5041367;28;20649;-86
2022/11/20 06:42:16;;;;;;;3.30;3.00;;;6.30;99.90;;;;;;5036909;28;21902;-84
2022/11/20 06:44:43;;;;;;;5.20;2.20;;;6.10;99.90;;;;;;5050477;28;21516;-83
2022/11/20 06:47:10;;;;;;;2.40;2.30;;;6.30;99.90;;;;;;5051382;28;21024;-86
2022/11/20 06:49:38;;;;;;;3.57;2.87;;;6.20;99.90;;;;;;5049456;28;20665;-84
2022/11/20 06:52:05;;;;;;;4.00;3.00;;;5.80;99.90;;;;;;5043762;28;20991;-84
2022/11/20 06:54:32;;;;;;;4.10;2.90;;;6.40;99.90;;;;;;5037124;28;20622;-84
2022/11/20 06:56:58;;;;;;;3.90;2.97;;;6.10;99.90;;;;;;5039201;28;20622;-84
2022/11/20 06:59:27;;;;;;;4.10;3.60;;;6.30;99.90;;;;;;5039454;28;20648;-84
2022/11/20 07:01:54;;;;;;;2.80;2.60;;;6.30;99.90;;;;;;5047181;28;20633;-84
2022/11/20 07:04:21;;;;;;;3.47;3.10;;;6.30;99.90;;;;;;5037274;28;20627;-84
2022/11/20 07:06:50;;;;;;;3.07;2.60;;;6.20;99.90;;;;;;5040775;28;20633;-84
2022/11/20 07:09:17;;;;;;;3.10;2.90;;;6.20;99.90;;;;;;5049151;28;20647;-84
2022/11/20 07:11:45;;;;;;;3.10;2.60;;;6.20;99.90;;;;;;5049326;28;20618;-84
2022/11/20 07:14:12;;;;;;;3.53;3.13;;;5.90;99.90;;;;;;5045767;28;20633;-84
2022/11/20 07:16:40;;;;;;;3.07;2.87;;;6.20;99.90;;;;;;5035819;28;21375;-85
2022/11/20 07:19:07;;;;;;;2.93;2.60;;;6.40;99.90;;;;;;5039588;28;20666;-85
2022/11/20 07:21:34;;;;;;;3.43;3.20;;;6.30;99.90;;;;;;5038266;28;20634;-85
2022/11/20 07:24:00;;;;;;;2.80;2.60;;;6.30;99.90;;;;;;5045065;28;20652;-85
2022/11/20 07:26:27;;;;;;;3.77;2.90;;;6.60;99.90;;;;;;5040458;28;20633;-84
2022/11/20 07:28:54;;;;;;;2.97;2.77;;;6.50;99.90;;;;;;5042776;28;20660;-86
2022/11/20 07:31:21;;;;;;;2.93;2.70;;;6.30;99.90;;;;;;5027797;28;20635;-86
2022/11/20 07:33:49;;;;;;;2.70;2.50;;;6.20;99.90;;;;;;5031934;28;20680;-83
2022/11/20 07:36:16;;;;;;;3.00;2.80;;;6.30;99.90;;;;;;5041312;28;21421;-84
2022/11/20 07:38:43;;;;;;;4.13;3.33;;;5.90;99.90;;;;;;5049078;28;20663;-85
2022/11/20 07:41:10;;;;;;;3.97;3.67;;;6.60;99.90;;;;;;5046307;28;20627;-84
2022/11/20 07:43:37;;;;;;;4.27;3.10;;;6.70;99.90;;;;;;5043635;28;21204;-84
2022/11/20 07:46:04;;;;;;;3.53;3.10;;;6.50;99.90;;;;;;5046133;28;20627;-85
2022/11/20 07:48:31;;;;;;;3.70;3.40;;;6.40;99.90;;;;;;5038260;28;20986;-85
2022/11/20 07:50:59;;;;;;;5.90;3.73;;;6.70;99.90;;;;;;5046921;28;20633;-85
2022/11/20 07:53:25;;;;;;;2.63;2.43;;;6.50;99.90;;;;;;5040553;28;20646;-84
2022/11/20 07:55:52;;;;;;;3.50;3.20;;;6.60;99.90;;;;;;5037120;28;21189;-85
2022/11/20 07:58:19;;;;;;;4.27;3.40;;;6.50;99.90;;;;;;5048830;28;20693;-85
2022/11/20 08:00:46;;;;;;;3.23;3.00;;;6.60;99.90;;;;;;5048865;28;20626;-85
2022/11/20 08:03:13;;;;;;;4.40;4.00;;;6.70;99.90;;;;;;5037874;28;20654;-85
2022/11/20 08:05:40;;;;;;;3.03;2.83;;;6.60;99.90;;;;;;5044590;28;20626;-86
2022/11/20 08:08:08;;;;;;;2.93;2.70;;;6.80;99.90;;;;;;5032366;28;20633;-85
2022/11/20 08:10:35;;;;;;;2.47;2.30;;;6.50;99.90;;;;;;5037058;28;20710;-85
2022/11/20 08:15:52;;;;;;;3.93;2.40;;;6.60;99.90;;;;;;5031567;28;20641;-85
2022/11/20 08:18:20;;;;;;;3.43;3.10;;;6.80;99.90;;;;;;5037185;28;20757;-84
2022/11/20 08:20:46;;;;;;;3.17;2.93;;;6.70;99.90;;;;;;5044091;28;21180;-85
2022/11/20 08:23:15;;;;;;;3.87;3.20;;;6.40;99.90;;;;;;5054108;28;20641;-85
2022/11/20 08:25:42;;;;;;;6.57;3.13;;;6.50;99.90;;;;;;5070926;28;20617;-84
2022/11/20 08:28:10;;;;;;;2.57;2.20;;;6.80;99.90;;;;;;5067625;28;20615;-85
2022/11/20 08:30:37;;;;;;;2.70;2.50;;;7.00;99.90;;;;;;5072607;28;20648;-84
2022/11/20 08:33:07;;;;;;;2.73;2.63;;;6.80;99.90;;;;;;5072460;28;20888;-85
2022/11/20 08:35:35;;;;;;;2.50;2.30;;;6.50;99.90;;;;;;5048043;28;20622;-86
2022/11/20 08:38:02;;;;;;;3.10;2.80;;;6.80;99.90;;;;;;5033166;28;21072;-85
2022/11/20 08:40:31;;;;;;;2.60;2.40;;;6.90;99.90;;;;;;5038221;28;20623;-86
2022/11/20 08:42:58;;;;;;;2.07;1.97;;;6.40;99.90;;;;;;5041076;28;20668;-86
2022/11/20 08:45:25;;;;;;;2.33;2.20;;;6.90;99.90;;;;;;5043766;28;20638;-86
2022/11/20 08:47:53;;;;;;;2.23;2.13;;;7.00;99.90;;;;;;5041020;28;20638;-85
2022/11/20 08:50:20;;;;;;;2.97;2.70;;;7.20;99.90;;;;;;5038842;28;20622;-85
2022/11/20 08:52:46;;;;;;;2.90;2.60;;;7.20;99.90;;;;;;5036723;28;20700;-83
2022/11/20 08:55:13;;;;;;;2.10;2.00;;;7.10;99.90;;;;;;5042637;28;20626;-85
2022/11/20 08:57:42;;;;;;;2.20;2.10;;;7.10;99.90;;;;;;5040383;28;20625;-85
2022/11/20 09:00:11;;;;;;;1.83;1.70;;;7.20;99.90;;;;;;5044928;28;20614;-84
2022/11/20 09:02:38;;;;;;;2.30;2.10;;;7.30;99.90;;;;;;5042160;28;20651;-85
2022/11/20 09:05:06;;;;;;;2.83;2.47;;;7.20;99.90;;;;;;5043711;28;20625;-85
2022/11/20 09:07:32;;;;;;;3.13;2.80;;;7.80;99.90;;;;;;5046575;28;21414;-85
2022/11/20 09:09:59;;;;;;;2.30;2.10;;;7.30;99.90;;;;;;5035074;28;20649;-86
2022/11/20 09:12:26;;;;;;;1.90;1.80;;;7.40;99.90;;;;;;5037061;28;20654;-85
2022/11/20 09:14:54;;;;;;;3.23;2.40;;;7.70;99.90;;;;;;5028489;28;20626;-85
2022/11/20 09:17:21;;;;;;;2.27;2.10;;;7.80;99.90;;;;;;5031522;28;20638;-85
2022/11/20 09:19:48;;;;;;;2.33;2.13;;;7.60;99.90;;;;;;5036403;28;20693;-85
2022/11/20 09:22:15;;;;;;;3.10;2.80;;;7.50;99.90;;;;;;5038275;28;20645;-84
2022/11/20 09:24:42;;;;;;;3.50;2.83;;;7.80;99.90;;;;;;5038743;28;20630;-86
2022/11/20 09:27:09;;;;;;;3.13;2.20;;;7.80;99.90;;;;;;5043613;28;20637;-85
2022/11/20 09:29:36;;;;;;;2.57;2.37;;;7.90;99.90;;;;;;5034914;28;20642;-86
2022/11/20 09:32:05;;;;;;;2.50;2.30;;;7.70;99.90;;;;;;5035703;28;20626;-86
2022/11/20 09:34:32;;;;;;;1.73;1.63;;;7.90;99.90;;;;;;5036114;28;20618;-85
2022/11/20 09:36:59;;;;;;;1.70;1.60;;;8.00;99.90;;;;;;5041837;28;20634;-86
2022/11/20 09:39:26;;;;;;;2.33;1.97;;;8.00;99.90;;;;;;5037263;28;20682;-85
2022/11/20 09:42:18;;;;;;;3.23;1.97;;;7.90;99.90;;;;;;5039353;28;20630;-85
2022/11/20 09:44:57;;;;;;;2.10;1.73;;;7.90;99.90;;;;;;5033006;28;21281;-86
2022/11/20 09:47:39;;;;;;;1.23;1.17;;;7.90;99.90;;;;;;5041602;28;20637;-86
2022/11/20 09:50:23;;;;;;;1.33;1.23;;;8.00;99.90;;;;;;5034915;28;20665;-85
2022/11/20 09:53:03;;;;;;;1.33;1.00;;;7.40;99.90;;;;;;5045373;28;20647;-84
2022/11/20 09:55:31;;;;;;;1.30;1.20;;;7.60;99.90;;;;;;5034719;28;20637;-84
2022/11/20 09:58:00;;;;;;;1.70;1.60;;;8.10;99.90;;;;;;5037134;28;20637;-87
2022/11/20 10:00:29;;;;;;;1.80;1.33;;;7.90;99.90;;;;;;5042225;28;20646;-85
2022/11/20 10:03:03;;;;;;;1.20;1.10;;;7.80;99.90;;;;;;5037573;28;20630;-85
2022/11/20 10:05:36;;;;;;;0.97;0.90;;;7.80;99.90;;;;;;5037084;28;20629;-85
2022/11/20 10:08:21;;;;;;;0.93;0.80;;;8.20;99.90;;;;;;5047135;28;20626;-84
2022/11/20 10:10:55;;;;;;;0.83;0.83;;;7.50;99.90;;;;;;5036368;28;20662;-85
2022/11/20 10:13:34;;;;;;;0.80;0.80;;;7.70;99.90;;;;;;5041690;28;21469;-86
2022/11/20 10:16:16;;;;;;;1.20;1.10;;;8.20;99.90;;;;;;5040126;28;20645;-85
2022/11/20 10:19:00;;;;;;;0.80;0.80;;;8.30;99.90;;;;;;5038035;28;20688;-85
2022/11/20 10:21:36;;;;;;;1.03;1.00;;;8.10;99.90;;;;;;5037056;28;20617;-85
2022/11/20 10:24:39;;;;;;;1.10;1.00;;;8.10;99.90;;;;;;5031692;28;20634;-86
2022/11/20 10:27:23;;;;;;;0.83;0.83;;;8.20;99.90;;;;;;5029963;28;20634;-85
2022/11/20 10:30:01;;;;;;;0.70;0.70;;;7.90;99.90;;;;;;5032545;28;20646;-85
2022/11/20 10:32:35;;;;;;;2.97;2.77;;;8.10;99.90;;;;;;5032251;28;20637;-85
2022/11/20 10:35:09;;;;;;;1.33;1.23;;;7.60;99.90;;;;;;5034317;28;20610;-85
2022/11/20 10:37:41;;;;;;;1.90;1.30;;;7.90;99.90;;;;;;5038463;28;20975;-85
2022/11/20 10:40:23;;;;;;;2.37;2.17;;;7.90;99.90;;;;;;5033523;28;20700;-86
2022/11/20 10:42:55;;;;;;;1.53;1.43;;;7.80;99.90;;;;;;5034792;28;20755;-85
2022/11/20 10:45:34;;;;;;;1.00;0.90;;;7.50;99.90;;;;;;5031008;28;20639;-85
2022/11/20 10:48:12;;;;;;;0.80;0.80;;;7.60;99.90;;;;;;5028945;28;20655;-85
2022/11/20 10:50:53;;;;;;;1.20;1.10;;;7.70;99.90;;;;;;5032403;28;20651;-85
2022/11/20 10:53:37;;;;;;;2.70;2.47;;;7.50;99.90;;;;;;5036762;28;20637;-85
2022/11/20 10:56:12;;;;;;;1.10;1.00;;;7.50;99.90;;;;;;5042166;28;20638;-86
2022/11/20 10:58:46;;;;;;;2.67;2.47;;;7.50;99.90;;;;;;5036888;28;20832;-85
2022/11/20 11:01:16;;;;;;;1.73;1.63;;;7.30;99.90;;;;;;5040350;28;20994;-84
2022/11/20 11:03:43;;;;;;;1.23;1.00;;;7.00;99.90;;;;;;5043766;28;20625;-85
2022/11/20 11:06:20;;;;;;;1.73;1.63;;;7.20;99.90;;;;;;5046562;28;20692;-85
2022/11/20 11:08:50;;;;;;;1.13;1.10;;;6.90;99.90;;;;;;5045668;28;20642;-84
2022/11/20 11:11:23;;;;;;;1.33;1.23;;;6.90;99.90;;;;;;5042287;28;20646;-85
2022/11/20 11:13:50;;;;;;;1.47;1.20;;;6.80;99.90;;;;;;5050285;28;20732;-84
2022/11/20 11:16:23;;;;;;;1.30;1.03;;;7.20;99.90;;;;;;5034583;28;21255;-85
2022/11/20 11:18:50;;;;;;;1.00;1.00;;;7.40;99.90;;;;;;5040273;28;20674;-85
2022/11/20 11:21:24;;;;;;;1.23;1.23;;;7.40;99.90;;;;;;5042565;28;20630;-84
2022/11/20 11:24:00;;;;;;;1.37;1.27;;;7.20;99.90;;;;;;5036178;28;20694;-85
2022/11/20 11:26:27;;;;;;;1.53;1.43;;;6.80;99.90;;;;;;5045563;28;20664;-85
2022/11/20 11:28:56;;;;;;;1.50;1.40;;;7.40;99.90;;;;;;5033363;28;20627;-85
2022/11/20 11:31:28;;;;;;;1.77;1.67;;;7.30;99.90;;;;;;5035701;28;21212;-85
2022/11/20 11:34:06;;;;;;;5.47;2.03;;;7.20;99.90;;;;;;5048317;28;20629;-85
2022/11/20 11:36:36;;;;;;;2.27;1.43;;;7.30;99.90;;;;;;5044322;28;21304;-86
2022/11/20 11:39:06;;;;;;;1.60;1.00;;;8.00;99.90;;;;;;5049299;28;20995;-85
2022/11/20 11:41:35;;;;;;;2.27;1.47;;;8.20;99.90;;;;;;5045611;28;20623;-85
2022/11/20 11:47:18;;;;;;;2.97;1.90;;;11.30;99.90;;;;;;5040656;28;20649;-86
2022/11/20 11:49:45;;;;;;;1.43;1.20;;;12.40;99.90;;;;;;5057259;28;20622;-87
2022/11/20 11:52:19;;;;;;;2.27;2.07;;;13.70;99.90;;;;;;5054008;28;20644;-86
2022/11/20 11:54:51;;;;;;;1.60;1.50;;;14.80;99.90;;;;;;5071571;28;20747;-86
2022/11/20 11:57:24;;;;;;;1.33;1.33;;;16.00;99.90;;;;;;5068004;28;20753;-86
2022/11/20 12:00:01;;;;;;;1.93;0.97;;;16.30;99.90;;;;;;5058552;28;20647;-89
2022/11/20 12:02:38;;;;;;;2.37;1.23;;;17.40;98.30;;;;;;5053263;28;21183;-86
2022/11/20 12:05:17;;;;;;;2.17;1.73;;;17.60;97.30;;;;;;5044888;28;20637;-86
2022/11/20 12:07:48;;;;;;;1.50;0.90;;;16.50;98.40;;;;;;5042168;28;20688;-86
2022/11/20 12:10:20;;;;;;;2.63;1.57;;;17.10;1.00;;;;;;5036234;28;21016;-86
2022/11/20 12:12:52;;;;;;;2.47;1.10;;;18.60;99.90;;;;;;5033661;28;20635;-85
2022/11/20 12:15:27;;;;;;;2.60;0.90;;;18.60;99.90;;;;;;5034024;28;21051;-87
2022/11/20 12:17:55;;;;;;;1.60;0.90;;;17.80;99.90;;;;;;5037387;28;20626;-88
2022/11/20 12:20:26;;;;;;;1.50;0.90;;;17.50;99.90;;;;;;5041205;28;21069;-87
2022/11/20 12:23:02;;;;;;;1.60;1.10;;;18.70;99.90;;;;;;5040711;28;20637;-87
2022/11/20 12:25:32;;;;;;;1.33;1.03;;;18.60;99.90;;;;;;5029022;28;20654;-87
2022/11/20 12:28:21;;;;;;;3.50;1.10;;;18.40;99.90;;;;;;5036779;28;20645;-87
2022/11/20 12:31:03;;;;;;;0.90;0.90;;;17.60;99.90;;;;;;5031107;28;21199;-86
2022/11/20 12:33:48;;;;;;;1.27;1.07;;;16.20;1.00;;;;;;5034375;28;20611;-87
2022/11/20 12:36:26;;;;;;;1.20;1.10;;;15.50;1.00;;;;;;5040030;28;20633;-87
2022/11/20 12:39:17;;;;;;;1.70;1.40;;;14.60;1.00;;;;;;5038141;28;21244;-86
2022/11/20 12:45:11;;;;;;;1.73;1.20;;;12.40;18.10;;;;;;5044288;28;20605;-88
2022/11/20 12:48:20;;;;;;;1.70;0.80;;;11.60;99.90;;;;;;5042999;28;20755;-87
2022/11/20 12:50:57;;;;;;;3.47;1.60;;;11.20;82.80;;;;;;5010310;28;20721;-86
2022/11/20 12:53:32;;;;;;;1.53;1.10;;;10.90;1.00;;;;;;5047358;28;20625;-87
2022/11/20 12:56:13;;;;;;;2.57;1.23;;;10.70;1.00;;;;;;5039172;28;20625;-86
2022/11/20 12:58:46;;;;;;;1.60;1.10;;;10.50;99.90;;;;;;5039363;28;20754;-86
2022/11/20 13:04:16;;;;;;;1.90;1.20;;;12.00;99.90;;;;;;5037034;28;21340;-86
2022/11/20 13:06:43;;;;;;;4.10;1.80;;;13.90;99.90;;;;;;5039407;28;20666;-88
2022/11/20 13:09:14;;;;;;;1.53;0.90;;;14.70;99.90;;;;;;5041536;28;20689;-86
2022/11/20 13:11:49;;;;;;;2.47;1.10;;;15.30;99.90;;;;;;5043419;28;20647;-85
2022/11/20 13:14:32;;;;;;;1.27;0.87;;;16.20;99.90;;;;;;5041163;28;20646;-86
2022/11/20 13:17:06;;;;;;;1.97;0.80;;;15.10;99.90;;;;;;5042487;28;20644;-86
2022/11/20 13:19:35;;;;;;;0.80;0.80;;;16.20;99.90;;;;;;5034675;28;21054;-86
2022/11/20 13:22:04;;;;;;;2.73;1.00;;;15.20;99.90;;;;;;5035991;28;20618;-85
2022/11/20 13:24:31;;;;;;;1.67;0.67;;;14.00;99.90;;;;;;5044559;28;20630;-86
2022/11/20 13:27:05;;;;;;;1.17;1.10;;;12.20;99.90;;;;;;5036757;28;20624;-86
2022/11/20 13:29:32;;;;;;;1.07;0.70;;;11.60;1.00;;;;;;5030760;28;21007;-86
2022/11/20 13:32:07;;;;;;;3.97;0.80;;;11.20;1.00;;;;;;5037702;28;20719;-85